sensor_id;sensor_type;location;lat;lon;timestamp;temperature;humidity
18888;DHT22;9576;47.792;9.628;2023-07-24T00:00:45;18.70;99.90
18888;DHT22;9576;47.792;9.628;2023-07-24T00:03:47;18.60;99.90
18888;DHT22;9576;47.792;9.628;2023-07-24T00:06:49;18.50;99.90
18888;DHT22;9576;47.792;9.628;2023-07-24T00:09:50;18.30;99.90
18888;DHT22;9576;47.792;9.628;2023-07-24T00:12:53;18.40;99.90
18888;DHT22;9576;47.792;9.628;2023-07-24T00:15:57;18.40;99.90
18888;DHT22;9576;47.792;9.628;2023-07-24T00:18:59;18.30;99.90
18888;DHT22;9576;47.792;9.628;2023-07-24T00:22:01;18.30;99.90
18888;DHT22;9576;47.792;9.628;2023-07-24T00:25:03;18.30;99.90
18888;DHT22;9576;47.792;9.628;2023-07-24T00:28:06;18.30;99.90
18888;DHT22;9576;47.792;9.628;2023-07-24T00:31:09;18.30;99.90
18888;DHT22;9576;47.792;9.628;2023-07-24T00:34:11;18.30;99.90
18888;DHT22;9576;47.792;9.628;2023-07-24T00:37:13;18.20;99.90
18888;DHT22;9576;47.792;9.628;2023-07-24T00:40:15;18.20;99.90
18888;DHT22;9576;47.792;9.628;2023-07-24T00:43:17;18.00;99.90
18888;DHT22;9576;47.792;9.628;2023-07-24T00:46:20;17.90;99.90
18888;DHT22;9576;47.792;9.628;2023-07-24T00:49:22;17.90;99.90
18888;DHT22;9576;47.792;9.628;2023-07-24T00:52:25;17.90;99.90
18888;DHT22;9576;47.792;9.628;2023-07-24T00:55:27;17.90;99.90
18888;DHT22;9576;47.792;9.628;2023-07-24T00:58:29;17.80;99.90
18888;DHT22;9576;47.792;9.628;2023-07-24T01:01:33;17.90;99.90
18888;DHT22;9576;47.792;9.628;2023-07-24T01:04:36;17.80;99.90
18888;DHT22;9576;47.792;9.628;2023-07-24T01:07:38;17.80;99.90
18888;DHT22;9576;47.792;9.628;2023-07-24T01:10:40;17.70;99.90
18888;DHT22;9576;47.792;9.628;2023-07-24T01:13:47;17.80;99.90
18888;DHT22;9576;47.792;9.628;2023-07-24T01:16:54;17.80;99.90
18888;DHT22;9576;47.792;9.628;2023-07-24T01:19:58;17.80;99.90
18888;DHT22;9576;47.792;9.628;2023-07-24T01:23:21;17.50;99.90
18888;DHT22;9576;47.792;9.628;2023-07-24T01:26:25;17.50;99.90
18888;DHT22;9576;47.792;9.628;2023-07-24T01:29:28;17.60;99.90
18888;DHT22;9576;47.792;9.628;2023-07-24T01:32:29;17.70;99.90
18888;DHT22;9576;47.792;9.628;2023-07-24T01:35:32;17.90;99.90
18888;DHT22;9576;47.792;9.628;2023-07-24T01:38:35;18.00;99.90
18888;DHT22;9576;47.792;9.628;2023-07-24T01:41:39;17.90;99.90
18888;DHT22;9576;47.792;9.628;2023-07-24T01:44:41;17.90;99.90
18888;DHT22;9576;47.792;9.628;2023-07-24T01:47:43;17.90;99.90
18888;DHT22;9576;47.792;9.628;2023-07-24T01:50:45;18.00;99.90
18888;DHT22;9576;47.792;9.628;2023-07-24T01:53:47;17.90;99.90
18888;DHT22;9576;47.792;9.628;2023-07-24T01:56:50;18.00;99.90
18888;DHT22;9576;47.792;9.628;2023-07-24T01:59:52;18.00;99.90
18888;DHT22;9576;47.792;9.628;2023-07-24T02:02:54;18.00;99.90
18888;DHT22;9576;47.792;9.628;2023-07-24T02:05:56;18.10;99.90
18888;DHT22;9576;47.792;9.628;2023-07-24T02:08:58;18.20;99.90
18888;DHT22;9576;47.792;9.628;2023-07-24T02:12:01;18.30;99.90
18888;DHT22;9576;47.792;9.628;2023-07-24T02:15:04;18.40;99.90
18888;DHT22;9576;47.792;9.628;2023-07-24T02:18:06;18.50;99.90
18888;DHT22;9576;47.792;9.628;2023-07-24T02:21:08;18.50;99.90
18888;DHT22;9576;47.792;9.628;2023-07-24T02:24:10;18.60;99.90
18888;DHT22;9576;47.792;9.628;2023-07-24T02:27:23;18.60;99.90
18888;DHT22;9576;47.792;9.628;2023-07-24T02:30:25;18.40;99.90
18888;DHT22;9576;47.792;9.628;2023-07-24T02:33:27;18.30;99.90
18888;DHT22;9576;47.792;9.628;2023-07-24T02:36:29;18.30;99.90
18888;DHT22;9576;47.792;9.628;2023-07-24T02:39:31;18.30;99.90
18888;DHT22;9576;47.792;9.628;2023-07-24T02:42:34;18.30;99.90
18888;DHT22;9576;47.792;9.628;2023-07-24T02:45:37;18.30;99.90
18888;DHT22;9576;47.792;9.628;2023-07-24T02:48:39;18.40;99.90
18888;DHT22;9576;47.792;9.628;2023-07-24T02:51:41;18.30;99.90
18888;DHT22;9576;47.792;9.628;2023-07-24T02:54:43;18.30;99.90
18888;DHT22;9576;47.792;9.628;2023-07-24T02:57:46;18.20;99.90
18888;DHT22;9576;47.792;9.628;2023-07-24T03:00:48;18.20;99.90
18888;DHT22;9576;47.792;9.628;2023-07-24T03:03:50;18.20;99.90
18888;DHT22;9576;47.792;9.628;2023-07-24T03:06:52;18.20;99.90
18888;DHT22;9576;47.792;9.628;2023-07-24T03:09:54;18.30;99.90
18888;DHT22;9576;47.792;9.628;2023-07-24T03:12:57;18.30;99.90
18888;DHT22;9576;47.792;9.628;2023-07-24T03:15:59;18.20;99.90
18888;DHT22;9576;47.792;9.628;2023-07-24T03:19:01;18.20;99.90
18888;DHT22;9576;47.792;9.628;2023-07-24T03:22:03;18.20;99.90
18888;DHT22;9576;47.792;9.628;2023-07-24T03:25:05;18.20;99.90
18888;DHT22;9576;47.792;9.628;2023-07-24T03:28:09;18.00;99.90
18888;DHT22;9576;47.792;9.628;2023-07-24T03:31:11;18.10;99.90
18888;DHT22;9576;47.792;9.628;2023-07-24T03:34:13;18.10;99.90
18888;DHT22;9576;47.792;9.628;2023-07-24T03:37:15;18.00;99.90
18888;DHT22;9576;47.792;9.628;2023-07-24T03:40:17;18.10;99.90
18888;DHT22;9576;47.792;9.628;2023-07-24T03:43:20;18.10;99.90
18888;DHT22;9576;47.792;9.628;2023-07-24T03:46:22;18.10;99.90
18888;DHT22;9576;47.792;9.628;2023-07-24T03:49:24;18.10;99.90
18888;DHT22;9576;47.792;9.628;2023-07-24T03:52:26;18.10;99.90
18888;DHT22;9576;47.792;9.628;2023-07-24T03:55:28;18.10;99.90
18888;DHT22;9576;47.792;9.628;2023-07-24T03:58:31;18.10;99.90
18888;DHT22;9576;47.792;9.628;2023-07-24T04:01:33;18.10;99.90
18888;DHT22;9576;47.792;9.628;2023-07-24T04:04:35;18.00;99.90
18888;DHT22;9576;47.792;9.628;2023-07-24T04:07:37;18.00;99.90
18888;DHT22;9576;47.792;9.628;2023-07-24T04:10:39;17.90;99.90
18888;DHT22;9576;47.792;9.628;2023-07-24T04:13:42;17.90;99.90
18888;DHT22;9576;47.792;9.628;2023-07-24T04:16:44;17.90;99.90
18888;DHT22;9576;47.792;9.628;2023-07-24T04:19:46;17.90;99.90
18888;DHT22;9576;47.792;9.628;2023-07-24T04:22:48;17.90;99.90
18888;DHT22;9576;47.792;9.628;2023-07-24T04:25:50;17.90;99.90
18888;DHT22;9576;47.792;9.628;2023-07-24T04:28:53;17.90;99.90
18888;DHT22;9576;47.792;9.628;2023-07-24T04:31:55;18.00;99.90
18888;DHT22;9576;47.792;9.628;2023-07-24T04:34:57;18.10;99.90
18888;DHT22;9576;47.792;9.628;2023-07-24T04:37:59;18.10;99.90
18888;DHT22;9576;47.792;9.628;2023-07-24T04:41:01;18.20;99.90
18888;DHT22;9576;47.792;9.628;2023-07-24T04:44:04;18.20;99.90
18888;DHT22;9576;47.792;9.628;2023-07-24T04:47:06;18.40;99.90
18888;DHT22;9576;47.792;9.628;2023-07-24T04:50:09;18.40;99.90
18888;DHT22;9576;47.792;9.628;2023-07-24T04:53:11;18.40;99.90
18888;DHT22;9576;47.792;9.628;2023-07-24T04:56:13;18.40;99.90
18888;DHT22;9576;47.792;9.628;2023-07-24T04:59:16;18.40;99.90
18888;DHT22;9576;47.792;9.628;2023-07-24T05:02:18;18.40;99.90
18888;DHT22;9576;47.792;9.628;2023-07-24T05:05:20;18.50;99.90
18888;DHT22;9576;47.792;9.628;2023-07-24T05:08:22;18.50;99.90
18888;DHT22;9576;47.792;9.628;2023-07-24T05:11:24;18.50;99.90
18888;DHT22;9576;47.792;9.628;2023-07-24T05:14:27;18.50;99.90
18888;DHT22;9576;47.792;9.628;2023-07-24T05:17:29;18.60;99.90
18888;DHT22;9576;47.792;9.628;2023-07-24T05:20:31;18.80;99.90
18888;DHT22;9576;47.792;9.628;2023-07-24T05:23:33;18.90;99.90
18888;DHT22;9576;47.792;9.628;2023-07-24T05:26:35;19.10;99.90
18888;DHT22;9576;47.792;9.628;2023-07-24T05:29:38;19.10;99.90
18888;DHT22;9576;47.792;9.628;2023-07-24T05:32:40;19.10;99.90
18888;DHT22;9576;47.792;9.628;2023-07-24T05:35:42;19.10;99.90
18888;DHT22;9576;47.792;9.628;2023-07-24T05:38:44;18.90;99.90
18888;DHT22;9576;47.792;9.628;2023-07-24T05:41:47;18.90;99.90
18888;DHT22;9576;47.792;9.628;2023-07-24T05:44:50;18.70;99.90
18888;DHT22;9576;47.792;9.628;2023-07-24T05:47:52;18.50;99.90
18888;DHT22;9576;47.792;9.628;2023-07-24T05:50:54;18.40;99.90
18888;DHT22;9576;47.792;9.628;2023-07-24T05:53:56;18.30;99.90
18888;DHT22;9576;47.792;9.628;2023-07-24T05:56:58;18.10;99.90
18888;DHT22;9576;47.792;9.628;2023-07-24T06:00:01;17.90;99.90
18888;DHT22;9576;47.792;9.628;2023-07-24T06:03:03;17.90;99.90
18888;DHT22;9576;47.792;9.628;2023-07-24T06:06:05;17.80;99.90
18888;DHT22;9576;47.792;9.628;2023-07-24T06:09:07;17.70;99.90
18888;DHT22;9576;47.792;9.628;2023-07-24T06:12:09;17.70;99.90
18888;DHT22;9576;47.792;9.628;2023-07-24T06:15:12;17.60;99.90
18888;DHT22;9576;47.792;9.628;2023-07-24T06:18:14;17.50;99.90
18888;DHT22;9576;47.792;9.628;2023-07-24T06:21:16;17.50;99.90
18888;DHT22;9576;47.792;9.628;2023-07-24T06:24:18;17.40;99.90
18888;DHT22;9576;47.792;9.628;2023-07-24T06:27:21;17.30;99.90
18888;DHT22;9576;47.792;9.628;2023-07-24T06:30:24;17.30;99.90
18888;DHT22;9576;47.792;9.628;2023-07-24T06:33:26;17.30;99.90
18888;DHT22;9576;47.792;9.628;2023-07-24T06:36:28;17.20;99.90
18888;DHT22;9576;47.792;9.628;2023-07-24T06:39:30;17.30;99.90
18888;DHT22;9576;47.792;9.628;2023-07-24T06:42:33;17.30;99.90
18888;DHT22;9576;47.792;9.628;2023-07-24T06:45:37;17.30;99.90
18888;DHT22;9576;47.792;9.628;2023-07-24T06:48:39;17.40;99.90
18888;DHT22;9576;47.792;9.628;2023-07-24T06:51:41;17.40;99.90
18888;DHT22;9576;47.792;9.628;2023-07-24T06:54:43;17.50;99.90
18888;DHT22;9576;47.792;9.628;2023-07-24T06:57:44;17.50;99.90
18888;DHT22;9576;47.792;9.628;2023-07-24T07:00:51;17.40;99.90
18888;DHT22;9576;47.792;9.628;2023-07-24T07:04:10;17.30;99.90
18888;DHT22;9576;47.792;9.628;2023-07-24T07:07:12;17.40;99.90
18888;DHT22;9576;47.792;9.628;2023-07-24T07:10:13;17.50;99.90
18888;DHT22;9576;47.792;9.628;2023-07-24T07:13:15;17.70;99.90
18888;DHT22;9576;47.792;9.628;2023-07-24T07:16:19;17.80;99.90
18888;DHT22;9576;47.792;9.628;2023-07-24T07:19:20;18.00;99.90
18888;DHT22;9576;47.792;9.628;2023-07-24T07:22:22;18.20;99.90
18888;DHT22;9576;47.792;9.628;2023-07-24T07:25:24;18.20;99.90
18888;DHT22;9576;47.792;9.628;2023-07-24T07:28:26;18.30;99.90
18888;DHT22;9576;47.792;9.628;2023-07-24T07:31:29;18.30;99.90
18888;DHT22;9576;47.792;9.628;2023-07-24T07:34:31;18.30;99.90
18888;DHT22;9576;47.792;9.628;2023-07-24T07:37:35;18.40;99.90
18888;DHT22;9576;47.792;9.628;2023-07-24T07:40:37;18.40;99.90
18888;DHT22;9576;47.792;9.628;2023-07-24T07:43:39;18.40;99.90
18888;DHT22;9576;47.792;9.628;2023-07-24T07:46:43;18.40;99.90
18888;DHT22;9576;47.792;9.628;2023-07-24T07:49:45;18.40;99.90
18888;DHT22;9576;47.792;9.628;2023-07-24T07:52:49;18.40;99.90
18888;DHT22;9576;47.792;9.628;2023-07-24T07:55:55;18.50;99.90
18888;DHT22;9576;47.792;9.628;2023-07-24T07:58:58;18.70;99.90
18888;DHT22;9576;47.792;9.628;2023-07-24T08:02:01;18.80;99.90
18888;DHT22;9576;47.792;9.628;2023-07-24T08:05:04;19.00;99.90
18888;DHT22;9576;47.792;9.628;2023-07-24T08:08:06;19.20;99.90
18888;DHT22;9576;47.792;9.628;2023-07-24T08:11:08;19.40;99.90
18888;DHT22;9576;47.792;9.628;2023-07-24T08:14:10;19.70;99.90
18888;DHT22;9576;47.792;9.628;2023-07-24T08:17:13;19.90;99.90
18888;DHT22;9576;47.792;9.628;2023-07-24T08:20:15;20.20;99.90
18888;DHT22;9576;47.792;9.628;2023-07-24T08:23:17;20.30;99.90
18888;DHT22;9576;47.792;9.628;2023-07-24T08:26:19;20.40;99.90
18888;DHT22;9576;47.792;9.628;2023-07-24T08:29:21;20.40;99.90
18888;DHT22;9576;47.792;9.628;2023-07-24T08:32:24;20.40;99.90
18888;DHT22;9576;47.792;9.628;2023-07-24T08:35:26;20.30;99.90
18888;DHT22;9576;47.792;9.628;2023-07-24T08:38:28;20.30;99.90
18888;DHT22;9576;47.792;9.628;2023-07-24T08:41:30;20.10;99.90
18888;DHT22;9576;47.792;9.628;2023-07-24T08:44:35;20.10;99.90
18888;DHT22;9576;47.792;9.628;2023-07-24T08:47:42;20.10;99.90
18888;DHT22;9576;47.792;9.628;2023-07-24T08:50:44;20.10;99.90
18888;DHT22;9576;47.792;9.628;2023-07-24T08:53:47;20.20;99.90
18888;DHT22;9576;47.792;9.628;2023-07-24T08:56:49;20.30;99.90
18888;DHT22;9576;47.792;9.628;2023-07-24T08:59:52;20.60;99.90
18888;DHT22;9576;47.792;9.628;2023-07-24T09:02:55;20.80;99.90
18888;DHT22;9576;47.792;9.628;2023-07-24T09:05:57;21.10;99.90
18888;DHT22;9576;47.792;9.628;2023-07-24T09:08:59;21.30;99.90
18888;DHT22;9576;47.792;9.628;2023-07-24T09:12:01;21.50;99.90
18888;DHT22;9576;47.792;9.628;2023-07-24T09:15:04;21.70;99.90
18888;DHT22;9576;47.792;9.628;2023-07-24T09:18:08;21.80;99.90
18888;DHT22;9576;47.792;9.628;2023-07-24T09:21:10;21.90;99.90
18888;DHT22;9576;47.792;9.628;2023-07-24T09:24:14;22.00;99.90
18888;DHT22;9576;47.792;9.628;2023-07-24T09:27:16;22.20;99.90
18888;DHT22;9576;47.792;9.628;2023-07-24T09:30:18;22.30;99.90
18888;DHT22;9576;47.792;9.628;2023-07-24T09:33:34;22.60;99.90
18888;DHT22;9576;47.792;9.628;2023-07-24T09:36:39;22.90;99.90
18888;DHT22;9576;47.792;9.628;2023-07-24T09:39:41;23.20;99.90
18888;DHT22;9576;47.792;9.628;2023-07-24T09:42:43;23.10;99.90
18888;DHT22;9576;47.792;9.628;2023-07-24T09:45:45;23.20;99.90
18888;DHT22;9576;47.792;9.628;2023-07-24T09:48:49;23.30;99.90
18888;DHT22;9576;47.792;9.628;2023-07-24T09:51:52;23.20;99.90
18888;DHT22;9576;47.792;9.628;2023-07-24T09:55:01;23.20;99.90
18888;DHT22;9576;47.792;9.628;2023-07-24T09:58:06;23.40;99.90
18888;DHT22;9576;47.792;9.628;2023-07-24T10:01:09;23.60;99.90
18888;DHT22;9576;47.792;9.628;2023-07-24T10:04:14;23.60;99.90
18888;DHT22;9576;47.792;9.628;2023-07-24T10:07:16;23.50;99.90
18888;DHT22;9576;47.792;9.628;2023-07-24T10:10:23;23.20;99.90
18888;DHT22;9576;47.792;9.628;2023-07-24T10:13:28;23.10;99.90
18888;DHT22;9576;47.792;9.628;2023-07-24T10:16:32;23.10;99.90
18888;DHT22;9576;47.792;9.628;2023-07-24T10:19:39;23.30;99.90
18888;DHT22;9576;47.792;9.628;2023-07-24T10:22:43;23.40;99.90
18888;DHT22;9576;47.792;9.628;2023-07-24T10:25:49;23.70;99.90
18888;DHT22;9576;47.792;9.628;2023-07-24T10:28:54;24.00;99.90
18888;DHT22;9576;47.792;9.628;2023-07-24T10:31:56;24.30;99.90
18888;DHT22;9576;47.792;9.628;2023-07-24T10:35:05;24.40;99.90
18888;DHT22;9576;47.792;9.628;2023-07-24T10:38:08;24.40;99.90
18888;DHT22;9576;47.792;9.628;2023-07-24T10:41:11;24.30;99.90
18888;DHT22;9576;47.792;9.628;2023-07-24T10:44:13;24.20;99.90
18888;DHT22;9576;47.792;9.628;2023-07-24T10:47:15;24.10;99.90
18888;DHT22;9576;47.792;9.628;2023-07-24T10:50:19;24.10;99.90
18888;DHT22;9576;47.792;9.628;2023-07-24T10:53:22;24.00;99.90
18888;DHT22;9576;47.792;9.628;2023-07-24T10:56:24;23.60;99.90
18888;DHT22;9576;47.792;9.628;2023-07-24T10:59:36;23.50;99.90
18888;DHT22;9576;47.792;9.628;2023-07-24T11:02:38;23.10;99.90
18888;DHT22;9576;47.792;9.628;2023-07-24T11:05:41;23.00;99.90
18888;DHT22;9576;47.792;9.628;2023-07-24T11:08:51;23.30;99.90
18888;DHT22;9576;47.792;9.628;2023-07-24T11:11:53;23.30;99.90
18888;DHT22;9576;47.792;9.628;2023-07-24T11:14:56;23.10;99.90
18888;DHT22;9576;47.792;9.628;2023-07-24T11:17:59;22.90;99.90
18888;DHT22;9576;47.792;9.628;2023-07-24T11:21:04;22.60;99.90
18888;DHT22;9576;47.792;9.628;2023-07-24T11:24:07;22.50;99.90
18888;DHT22;9576;47.792;9.628;2023-07-24T11:27:12;22.20;99.90
18888;DHT22;9576;47.792;9.628;2023-07-24T11:30:19;21.90;99.90
18888;DHT22;9576;47.792;9.628;2023-07-24T11:33:22;21.70;99.90
18888;DHT22;9576;47.792;9.628;2023-07-24T11:36:28;21.40;99.90
18888;DHT22;9576;47.792;9.628;2023-07-24T11:39:30;21.20;99.90
18888;DHT22;9576;47.792;9.628;2023-07-24T11:42:32;21.10;99.90
18888;DHT22;9576;47.792;9.628;2023-07-24T11:45:41;21.00;99.90
18888;DHT22;9576;47.792;9.628;2023-07-24T11:48:44;20.90;99.90
18888;DHT22;9576;47.792;9.628;2023-07-24T11:51:47;20.70;99.90
18888;DHT22;9576;47.792;9.628;2023-07-24T11:54:56;20.60;99.90
18888;DHT22;9576;47.792;9.628;2023-07-24T11:58:01;20.40;99.90
18888;DHT22;9576;47.792;9.628;2023-07-24T12:01:04;20.30;99.90
18888;DHT22;9576;47.792;9.628;2023-07-24T12:04:06;20.10;99.90
18888;DHT22;9576;47.792;9.628;2023-07-24T12:07:09;19.80;99.90
18888;DHT22;9576;47.792;9.628;2023-07-24T12:10:12;19.60;99.90
18888;DHT22;9576;47.792;9.628;2023-07-24T12:13:14;19.50;99.90
18888;DHT22;9576;47.792;9.628;2023-07-24T12:16:16;19.30;99.90
18888;DHT22;9576;47.792;9.628;2023-07-24T12:19:18;19.40;99.90
18888;DHT22;9576;47.792;9.628;2023-07-24T12:22:22;19.50;99.90
18888;DHT22;9576;47.792;9.628;2023-07-24T12:25:24;19.80;99.90
18888;DHT22;9576;47.792;9.628;2023-07-24T12:28:26;20.10;99.90
18888;DHT22;9576;47.792;9.628;2023-07-24T12:31:28;20.60;99.90
18888;DHT22;9576;47.792;9.628;2023-07-24T12:34:29;21.10;99.90
18888;DHT22;9576;47.792;9.628;2023-07-24T12:37:33;21.70;99.90
18888;DHT22;9576;47.792;9.628;2023-07-24T12:40:35;22.50;99.90
18888;DHT22;9576;47.792;9.628;2023-07-24T12:43:36;23.30;99.90
18888;DHT22;9576;47.792;9.628;2023-07-24T12:46:38;23.80;99.90
18888;DHT22;9576;47.792;9.628;2023-07-24T12:49:40;24.00;99.90
18888;DHT22;9576;47.792;9.628;2023-07-24T12:52:44;24.20;99.90
18888;DHT22;9576;47.792;9.628;2023-07-24T12:55:46;24.40;99.90
18888;DHT22;9576;47.792;9.628;2023-07-24T12:58:48;24.20;99.90
18888;DHT22;9576;47.792;9.628;2023-07-24T13:01:50;24.20;99.90
18888;DHT22;9576;47.792;9.628;2023-07-24T13:04:52;24.30;99.90
18888;DHT22;9576;47.792;9.628;2023-07-24T13:07:55;24.60;99.90
18888;DHT22;9576;47.792;9.628;2023-07-24T13:10:57;24.70;99.90
18888;DHT22;9576;47.792;9.628;2023-07-24T13:13:59;24.90;99.90
18888;DHT22;9576;47.792;9.628;2023-07-24T13:17:01;25.20;99.90
18888;DHT22;9576;47.792;9.628;2023-07-24T13:20:04;25.50;99.90
18888;DHT22;9576;47.792;9.628;2023-07-24T13:23:07;25.90;99.90
18888;DHT22;9576;47.792;9.628;2023-07-24T13:26:09;26.00;99.90
18888;DHT22;9576;47.792;9.628;2023-07-24T13:29:13;26.30;99.90
18888;DHT22;9576;47.792;9.628;2023-07-24T13:32:15;26.60;99.90
18888;DHT22;9576;47.792;9.628;2023-07-24T13:35:17;26.60;99.90
18888;DHT22;9576;47.792;9.628;2023-07-24T13:38:21;26.40;99.90
18888;DHT22;9576;47.792;9.628;2023-07-24T13:41:22;25.80;99.90
18888;DHT22;9576;47.792;9.628;2023-07-24T13:44:24;25.20;99.90
18888;DHT22;9576;47.792;9.628;2023-07-24T13:47:26;24.80;99.90
18888;DHT22;9576;47.792;9.628;2023-07-24T13:50:28;24.70;99.90
18888;DHT22;9576;47.792;9.628;2023-07-24T13:53:32;24.50;99.90
18888;DHT22;9576;47.792;9.628;2023-07-24T13:56:33;24.40;99.90
18888;DHT22;9576;47.792;9.628;2023-07-24T13:59:37;24.30;99.90
18888;DHT22;9576;47.792;9.628;2023-07-24T14:02:40;24.50;99.90
18888;DHT22;9576;47.792;9.628;2023-07-24T14:05:41;24.50;99.90
18888;DHT22;9576;47.792;9.628;2023-07-24T14:08:45;24.20;99.90
18888;DHT22;9576;47.792;9.628;2023-07-24T14:11:47;24.00;99.90
18888;DHT22;9576;47.792;9.628;2023-07-24T14:14:49;23.90;99.90
18888;DHT22;9576;47.792;9.628;2023-07-24T14:17:51;23.70;99.90
18888;DHT22;9576;47.792;9.628;2023-07-24T14:20:52;23.30;99.90
18888;DHT22;9576;47.792;9.628;2023-07-24T14:23:57;23.00;99.90
18888;DHT22;9576;47.792;9.628;2023-07-24T14:26:59;22.80;99.90
18888;DHT22;9576;47.792;9.628;2023-07-24T14:30:01;22.70;99.90
18888;DHT22;9576;47.792;9.628;2023-07-24T14:33:03;22.50;99.90
18888;DHT22;9576;47.792;9.628;2023-07-24T14:36:05;22.50;99.90
18888;DHT22;9576;47.792;9.628;2023-07-24T14:39:08;22.60;99.90
18888;DHT22;9576;47.792;9.628;2023-07-24T14:42:10;22.50;99.90
18888;DHT22;9576;47.792;9.628;2023-07-24T14:45:12;22.90;99.90
18888;DHT22;9576;47.792;9.628;2023-07-24T14:48:14;23.20;99.90
18888;DHT22;9576;47.792;9.628;2023-07-24T14:51:17;23.50;99.90
18888;DHT22;9576;47.792;9.628;2023-07-24T14:54:20;23.70;99.90
18888;DHT22;9576;47.792;9.628;2023-07-24T14:57:22;23.70;99.90
18888;DHT22;9576;47.792;9.628;2023-07-24T15:00:24;23.60;99.90
18888;DHT22;9576;47.792;9.628;2023-07-24T15:03:26;23.40;99.90
18888;DHT22;9576;47.792;9.628;2023-07-24T15:06:28;23.30;99.90
18888;DHT22;9576;47.792;9.628;2023-07-24T15:09:31;23.20;99.90
18888;DHT22;9576;47.792;9.628;2023-07-24T15:12:33;23.20;99.90
18888;DHT22;9576;47.792;9.628;2023-07-24T15:15:35;22.90;99.90
18888;DHT22;9576;47.792;9.628;2023-07-24T15:18:37;22.60;99.90
18888;DHT22;9576;47.792;9.628;2023-07-24T15:21:38;22.50;99.90
18888;DHT22;9576;47.792;9.628;2023-07-24T15:24:42;22.30;99.90
18888;DHT22;9576;47.792;9.628;2023-07-24T15:27:44;22.20;99.90
18888;DHT22;9576;47.792;9.628;2023-07-24T15:30:46;22.00;99.90
18888;DHT22;9576;47.792;9.628;2023-07-24T15:33:48;21.80;99.90
18888;DHT22;9576;47.792;9.628;2023-07-24T15:36:50;21.50;99.90
18888;DHT22;9576;47.792;9.628;2023-07-24T15:39:54;21.30;99.90
18888;DHT22;9576;47.792;9.628;2023-07-24T15:42:56;21.20;99.90
18888;DHT22;9576;47.792;9.628;2023-07-24T15:45:57;21.10;99.90
18888;DHT22;9576;47.792;9.628;2023-07-24T15:49:00;21.10;99.90
18888;DHT22;9576;47.792;9.628;2023-07-24T15:52:02;20.70;99.90
18888;DHT22;9576;47.792;9.628;2023-07-24T15:55:06;20.60;99.90
18888;DHT22;9576;47.792;9.628;2023-07-24T15:58:07;20.70;99.90
18888;DHT22;9576;47.792;9.628;2023-07-24T16:01:09;20.70;99.90
18888;DHT22;9576;47.792;9.628;2023-07-24T16:04:11;20.70;99.90
18888;DHT22;9576;47.792;9.628;2023-07-24T16:07:13;21.10;99.90
18888;DHT22;9576;47.792;9.628;2023-07-24T16:10:16;22.20;99.90
18888;DHT22;9576;47.792;9.628;2023-07-24T16:13:19;23.80;99.90
18888;DHT22;9576;47.792;9.628;2023-07-24T16:16:21;25.10;99.90
18888;DHT22;9576;47.792;9.628;2023-07-24T16:19:22;26.00;99.90
18888;DHT22;9576;47.792;9.628;2023-07-24T16:22:24;27.60;99.90
18888;DHT22;9576;47.792;9.628;2023-07-24T16:25:28;29.00;99.90
18888;DHT22;9576;47.792;9.628;2023-07-24T16:28:30;29.40;99.90
18888;DHT22;9576;47.792;9.628;2023-07-24T16:31:32;29.40;99.90
18888;DHT22;9576;47.792;9.628;2023-07-24T16:34:34;29.70;99.90
18888;DHT22;9576;47.792;9.628;2023-07-24T16:37:37;30.00;99.90
18888;DHT22;9576;47.792;9.628;2023-07-24T16:40:40;29.10;99.90
18888;DHT22;9576;47.792;9.628;2023-07-24T16:43:42;28.70;99.90
18888;DHT22;9576;47.792;9.628;2023-07-24T16:46:44;27.70;99.90
18888;DHT22;9576;47.792;9.628;2023-07-24T16:49:46;27.00;99.90
18888;DHT22;9576;47.792;9.628;2023-07-24T16:52:47;26.70;99.90
18888;DHT22;9576;47.792;9.628;2023-07-24T16:55:51;27.00;99.90
18888;DHT22;9576;47.792;9.628;2023-07-24T16:58:53;26.40;99.90
18888;DHT22;9576;47.792;9.628;2023-07-24T17:01:54;25.10;99.90
18888;DHT22;9576;47.792;9.628;2023-07-24T17:04:56;24.30;99.90
18888;DHT22;9576;47.792;9.628;2023-07-24T17:07:58;23.90;99.90
18888;DHT22;9576;47.792;9.628;2023-07-24T17:11:01;23.30;99.90
18888;DHT22;9576;47.792;9.628;2023-07-24T17:14:03;23.00;99.90
18888;DHT22;9576;47.792;9.628;2023-07-24T17:17:05;23.20;99.90
18888;DHT22;9576;47.792;9.628;2023-07-24T17:20:08;23.90;99.90
18888;DHT22;9576;47.792;9.628;2023-07-24T17:23:10;24.00;99.90
18888;DHT22;9576;47.792;9.628;2023-07-24T17:26:13;23.80;99.90
18888;DHT22;9576;47.792;9.628;2023-07-24T17:29:15;23.80;99.90
18888;DHT22;9576;47.792;9.628;2023-07-24T17:32:17;23.20;99.90
18888;DHT22;9576;47.792;9.628;2023-07-24T17:35:22;22.90;99.90
18888;DHT22;9576;47.792;9.628;2023-07-24T17:38:24;22.60;99.90
18888;DHT22;9576;47.792;9.628;2023-07-24T17:41:27;22.30;99.90
18888;DHT22;9576;47.792;9.628;2023-07-24T17:44:29;21.50;99.90
18888;DHT22;9576;47.792;9.628;2023-07-24T17:47:31;21.10;99.90
18888;DHT22;9576;47.792;9.628;2023-07-24T17:50:34;20.70;99.90
18888;DHT22;9576;47.792;9.628;2023-07-24T17:53:37;20.40;99.90
18888;DHT22;9576;47.792;9.628;2023-07-24T17:56:40;20.10;99.90
18888;DHT22;9576;47.792;9.628;2023-07-24T17:59:42;19.80;99.90
18888;DHT22;9576;47.792;9.628;2023-07-24T18:02:44;19.50;99.90
18888;DHT22;9576;47.792;9.628;2023-07-24T18:05:46;19.30;99.90
18888;DHT22;9576;47.792;9.628;2023-07-24T18:08:48;19.30;99.90
18888;DHT22;9576;47.792;9.628;2023-07-24T18:11:52;19.20;99.90
18888;DHT22;9576;47.792;9.628;2023-07-24T18:14:54;19.20;99.90
18888;DHT22;9576;47.792;9.628;2023-07-24T18:17:56;19.20;99.90
18888;DHT22;9576;47.792;9.628;2023-07-24T18:20:58;19.10;99.90
18888;DHT22;9576;47.792;9.628;2023-07-24T18:24:03;19.00;99.90
18888;DHT22;9576;47.792;9.628;2023-07-24T18:27:07;18.90;99.90
18888;DHT22;9576;47.792;9.628;2023-07-24T18:30:09;18.70;99.90
18888;DHT22;9576;47.792;9.628;2023-07-24T18:33:11;18.50;99.90
18888;DHT22;9576;47.792;9.628;2023-07-24T18:36:13;18.50;99.90
18888;DHT22;9576;47.792;9.628;2023-07-24T18:39:15;18.40;99.90
18888;DHT22;9576;47.792;9.628;2023-07-24T18:42:18;18.40;99.90
18888;DHT22;9576;47.792;9.628;2023-07-24T18:45:21;18.40;99.90
18888;DHT22;9576;47.792;9.628;2023-07-24T18:48:22;18.40;99.90
18888;DHT22;9576;47.792;9.628;2023-07-24T18:51:26;18.30;99.90
18888;DHT22;9576;47.792;9.628;2023-07-24T18:54:28;18.40;99.90
18888;DHT22;9576;47.792;9.628;2023-07-24T18:57:31;18.30;99.90
18888;DHT22;9576;47.792;9.628;2023-07-24T19:00:33;18.40;99.90
18888;DHT22;9576;47.792;9.628;2023-07-24T19:03:35;18.40;99.90
18888;DHT22;9576;47.792;9.628;2023-07-24T19:06:37;18.40;99.90
18888;DHT22;9576;47.792;9.628;2023-07-24T19:09:39;18.40;99.90
18888;DHT22;9576;47.792;9.628;2023-07-24T19:12:42;18.40;99.90
18888;DHT22;9576;47.792;9.628;2023-07-24T19:15:44;18.40;99.90
18888;DHT22;9576;47.792;9.628;2023-07-24T19:18:46;18.50;99.90
18888;DHT22;9576;47.792;9.628;2023-07-24T19:21:48;18.60;99.90
18888;DHT22;9576;47.792;9.628;2023-07-24T19:24:50;18.60;99.90
18888;DHT22;9576;47.792;9.628;2023-07-24T19:27:55;18.50;99.90
18888;DHT22;9576;47.792;9.628;2023-07-24T19:30:57;18.40;99.90